Bridger, Montana
Current Conditions -  °F | °C
As of 9:35 AM on Friday 24 Oct 2014 (Local Time) from KPOY Reporting Station
Clear Clear  
Wind Chill: 16°   Ceiling: Unl
Heat Index: 16°   Visibility: 10mi
Dew Point: -1°   Wind: 9mph
Humidity: 31%   Direction: 240°WSW
Pressure: 30.05"   Gusts: NA
Location:  45.3°N, 108.91°W
Report Text: KPOY 241535Z AUTO 24008KT 10SM CLR 16/M01 A3005 RMK AO2
Loading
Personal Weather Stations






























Interactive Weather Map
Tropical Storm Tracking
New forecast layout! Learn more

10-Day Weather Forecast

Advertisements
Track Severe Weather on mobile